createdAt,value
2023-04-02T00:00:09.834Z,35.73
2023-04-02T00:02:55.436Z,35.65
2023-04-02T00:05:30.413Z,35.74
2023-04-02T00:07:59.132Z,35.83
2023-04-02T00:10:26.855Z,35.86
2023-04-02T00:13:23.802Z,35.82
2023-04-02T00:15:50.624Z,35.88
2023-04-02T00:18:20.046Z,35.69
2023-04-02T00:21:26.427Z,35.73
2023-04-02T00:23:56.697Z,35.80
2023-04-02T00:26:33.490Z,35.79
2023-04-02T00:29:00.473Z,35.79
2023-04-02T00:31:27.314Z,35.88
2023-04-02T00:33:54.091Z,35.77
2023-04-02T00:36:22.127Z,35.92
2023-04-02T00:38:49.089Z,35.94
2023-04-02T00:41:18.368Z,35.78
2023-04-02T00:43:46.801Z,35.81
2023-04-02T00:46:25.864Z,35.81
2023-04-02T00:48:54.507Z,35.95
2023-04-02T00:51:25.976Z,35.94
2023-04-02T00:53:53.805Z,35.83
2023-04-02T00:56:32.227Z,35.88
2023-04-02T00:58:58.892Z,35.89
2023-04-02T01:01:28.132Z,35.92
2023-04-02T01:03:58.291Z,35.89
2023-04-02T01:06:29.960Z,36.00
2023-04-02T01:09:19.557Z,35.98
2023-04-02T01:12:13.960Z,35.92
2023-04-02T01:14:43.678Z,36.00
2023-04-02T01:17:22.405Z,35.94
2023-04-02T01:20:07.560Z,35.90
2023-04-02T01:22:41.775Z,35.95
2023-04-02T01:25:08.527Z,35.99
2023-04-02T01:27:40.760Z,36.04
2023-04-02T01:30:08.005Z,35.89
2023-04-02T01:32:34.751Z,36.03
2023-04-02T01:35:01.550Z,35.85
2023-04-02T01:37:49.460Z,35.98
2023-04-02T01:40:25.359Z,35.92
2023-04-02T01:43:02.025Z,36.02
2023-04-02T01:45:29.535Z,35.93
2023-04-02T01:47:56.429Z,35.90
2023-04-02T01:50:31.549Z,35.93
2023-04-02T01:53:00.971Z,36.00
2023-04-02T01:55:57.493Z,35.91
2023-04-02T01:58:31.739Z,36.04
2023-04-02T02:01:28.693Z,35.94
2023-04-02T02:03:55.086Z,36.06
2023-04-02T02:06:21.737Z,36.06
2023-04-02T02:09:09.257Z,35.87
2023-04-02T02:11:36.573Z,36.06
2023-04-02T02:14:15.544Z,36.06
2023-04-02T02:16:43.204Z,36.08
2023-04-02T02:19:43.518Z,36.07
2023-04-02T02:22:17.896Z,36.03
2023-04-02T02:24:44.584Z,36.14
2023-04-02T02:27:23.293Z,36.12
2023-04-02T02:29:55.491Z,36.11
2023-04-02T02:32:23.605Z,36.10
2023-04-02T02:34:54.944Z,36.07
2023-04-02T02:37:23.830Z,36.09
2023-04-02T02:39:53.113Z,36.09
2023-04-02T02:42:34.898Z,36.07
2023-04-02T02:45:01.852Z,36.01
2023-04-02T02:47:29.195Z,36.01
2023-04-02T02:49:58.992Z,36.16
2023-04-02T02:52:26.651Z,36.09
2023-04-02T02:54:55.255Z,36.18
2023-04-02T02:57:23.394Z,36.20
2023-04-02T02:59:50.341Z,36.13
2023-04-02T03:02:17.630Z,36.20
2023-04-02T03:04:48.777Z,36.12
2023-04-02T03:07:16.234Z,36.15
2023-04-02T03:09:51.693Z,36.18
2023-04-02T03:12:57.750Z,36.26
2023-04-02T03:16:20.727Z,36.31
2023-04-02T03:19:29.584Z,36.20
2023-04-02T03:22:03.108Z,36.21
2023-04-02T03:24:47.966Z,36.22
2023-04-02T03:27:21.162Z,36.27
2023-04-02T03:29:55.230Z,36.41
2023-04-02T03:32:27.287Z,36.35
2023-04-02T03:34:56.341Z,36.33
2023-04-02T03:37:25.900Z,36.24
2023-04-02T03:40:10.273Z,36.23
2023-04-02T03:42:46.463Z,36.16
2023-04-02T03:45:36.779Z,36.16
2023-04-02T03:48:31.238Z,36.21
2023-04-02T03:51:07.842Z,36.30
2023-04-02T03:53:34.397Z,36.27
2023-04-02T03:56:01.028Z,36.25
2023-04-02T03:58:29.216Z,36.33
2023-04-02T04:01:17.487Z,36.24
2023-04-02T04:03:49.817Z,36.26
2023-04-02T04:06:46.471Z,36.18
2023-04-02T04:09:37.905Z,36.13
2023-04-02T04:12:27.958Z,36.23
2023-04-02T04:15:01.456Z,36.31
2023-04-02T04:17:34.945Z,36.22
2023-04-02T04:20:25.526Z,36.26
2023-04-02T04:22:55.931Z,36.32
2023-04-02T04:25:33.946Z,36.32
2023-04-02T04:28:08.106Z,36.40
2023-04-02T04:30:50.852Z,36.29
2023-04-02T04:33:25.902Z,36.35
2023-04-02T04:36:02.272Z,36.30
2023-04-02T04:38:39.214Z,36.39
2023-04-02T04:41:16.833Z,36.45
2023-04-02T04:44:20.530Z,36.38
2023-04-02T04:46:56.383Z,36.38
2023-04-02T04:50:11.204Z,36.33
2023-04-02T04:52:39.409Z,36.39
2023-04-02T04:55:30.361Z,36.42
2023-04-02T04:57:59.929Z,36.37
2023-04-02T05:00:34.167Z,36.24
2023-04-02T05:03:06.188Z,35.43
2023-04-02T05:05:34.282Z,34.96
2023-04-02T05:08:06.146Z,34.73
2023-04-02T05:10:46.059Z,34.53
2023-04-02T05:13:23.184Z,34.23
2023-04-02T05:16:07.761Z,33.98
2023-04-02T05:18:38.804Z,33.56
2023-04-02T05:21:33.530Z,33.05
2023-04-02T05:24:25.829Z,32.53
2023-04-02T05:26:53.388Z,32.21
2023-04-02T05:29:25.813Z,31.97
2023-04-02T05:32:06.685Z,31.79
2023-04-02T05:34:35.281Z,31.70
2023-04-02T05:37:02.008Z,31.57
2023-04-02T05:39:28.711Z,31.51
2023-04-02T05:41:58.155Z,31.45
2023-04-02T05:44:32.566Z,31.37
2023-04-02T05:47:06.766Z,31.32
2023-04-02T05:49:41.697Z,31.24
2023-04-02T05:52:14.130Z,31.16
2023-04-02T05:54:52.450Z,31.15
2023-04-02T05:57:24.911Z,31.11
2023-04-02T05:59:56.841Z,31.04
2023-04-02T06:02:43.022Z,31.00
2023-04-02T06:05:15.184Z,31.00
2023-04-02T06:07:45.555Z,30.90
2023-04-02T06:10:24.725Z,30.91
2023-04-02T06:13:04.182Z,30.86
2023-04-02T06:15:31.942Z,30.82
2023-04-02T06:18:00.241Z,30.82
2023-04-02T06:20:27.022Z,30.77
2023-04-02T06:23:14.845Z,30.74
2023-04-02T06:26:16.641Z,30.71
2023-04-02T06:28:48.848Z,30.65
2023-04-02T06:31:24.569Z,30.66
2023-04-02T06:33:54.731Z,30.64
2023-04-02T06:36:21.368Z,30.59
2023-04-02T06:38:48.221Z,30.57
2023-04-02T06:41:21.454Z,30.54
2023-04-02T06:43:58.255Z,30.53
2023-04-02T06:46:40.912Z,30.50
2023-04-02T06:49:34.297Z,30.48
2023-04-02T06:52:01.768Z,30.44
2023-04-02T06:54:30.945Z,30.40
2023-04-02T06:56:57.661Z,30.43
2023-04-02T06:59:24.332Z,30.38
2023-04-02T07:02:26.485Z,30.33
2023-04-02T07:05:01.445Z,30.29
2023-04-02T07:07:28.130Z,30.36
2023-04-02T07:09:54.806Z,30.39
2023-04-02T07:12:25.111Z,30.47
2023-04-02T07:14:52.321Z,30.49
2023-04-02T07:17:19.260Z,30.56
2023-04-02T07:19:49.546Z,30.59
2023-04-02T07:22:17.546Z,30.71
2023-04-02T07:24:44.445Z,30.68
2023-04-02T07:27:11.948Z,30.74
2023-04-02T07:29:42.719Z,30.73
2023-04-02T07:32:10.843Z,30.72
2023-04-02T07:34:38.143Z,30.75
2023-04-02T07:37:04.844Z,30.69
2023-04-02T07:39:31.891Z,30.69
2023-04-02T07:42:00.630Z,30.67
2023-04-02T07:44:28.138Z,30.63
2023-04-02T07:46:55.037Z,30.63
2023-04-02T07:49:22.235Z,30.60
2023-04-02T07:51:48.825Z,30.60
2023-04-02T07:54:15.488Z,30.56
2023-04-02T07:56:42.418Z,30.56
2023-04-02T07:59:09.268Z,30.57
2023-04-02T08:01:36.666Z,30.56
2023-04-02T08:04:04.362Z,30.53
2023-04-02T08:06:31.428Z,30.47
2023-04-02T08:08:58.484Z,30.45
2023-04-02T08:11:25.105Z,30.47
2023-04-02T08:13:52.216Z,30.45
2023-04-02T08:16:18.841Z,30.40
2023-04-02T08:18:47.565Z,30.41
2023-04-02T08:21:16.338Z,30.40
2023-04-02T08:23:43.555Z,30.42
2023-04-02T08:26:10.239Z,30.43
2023-04-02T08:28:36.946Z,30.43
2023-04-02T08:31:04.881Z,30.39
2023-04-02T08:33:31.738Z,30.40
2023-04-02T08:35:58.381Z,30.39
2023-04-02T08:38:25.377Z,30.39
2023-04-02T08:40:53.859Z,30.26
2023-04-02T08:43:31.232Z,30.26
2023-04-02T08:46:19.766Z,30.31
2023-04-02T08:48:49.679Z,30.23
2023-04-02T08:51:27.399Z,30.25
2023-04-02T08:53:55.637Z,30.26
2023-04-02T08:56:31.252Z,30.27
2023-04-02T08:59:02.230Z,30.24
2023-04-02T09:01:34.643Z,30.23
2023-04-02T09:04:03.328Z,30.19
2023-04-02T09:06:29.934Z,30.18
2023-04-02T09:08:56.947Z,30.20
2023-04-02T09:11:23.497Z,30.18
2023-04-02T09:13:58.685Z,30.20
2023-04-02T09:16:40.887Z,30.36
2023-04-02T09:19:16.080Z,30.42
2023-04-02T09:21:45.939Z,30.57
2023-04-02T09:24:15.941Z,30.67
2023-04-02T09:26:42.731Z,30.80
2023-04-02T09:29:12.229Z,30.93
2023-04-02T09:31:45.035Z,31.03
2023-04-02T09:34:34.449Z,31.15
2023-04-02T09:37:13.899Z,31.24
2023-04-02T09:39:41.111Z,31.34
2023-04-02T09:42:08.613Z,31.44
2023-04-02T09:44:37.144Z,31.49
2023-04-02T09:47:05.836Z,31.62
2023-04-02T09:49:39.406Z,31.68
2023-04-02T09:52:28.035Z,31.75
2023-04-02T09:55:16.103Z,31.82
2023-04-02T09:57:43.180Z,31.94
2023-04-02T10:00:41.621Z,32.00
2023-04-02T10:03:32.906Z,32.09
2023-04-02T10:06:06.579Z,32.14
2023-04-02T10:08:33.197Z,32.20
2023-04-02T10:11:01.151Z,32.28
2023-04-02T10:13:43.348Z,32.30
2023-04-02T10:16:12.929Z,32.37
2023-04-02T10:19:04.553Z,32.41
2023-04-02T10:21:37.349Z,32.47
2023-04-02T10:24:15.684Z,32.52
2023-04-02T10:26:48.174Z,32.58
2023-04-02T10:29:32.731Z,32.64
2023-04-02T10:32:08.783Z,32.68
2023-04-02T10:34:58.207Z,32.72
2023-04-02T10:37:27.844Z,32.80
2023-04-02T10:40:00.792Z,32.82
2023-04-02T10:42:30.449Z,32.88
2023-04-02T10:45:22.678Z,32.94
2023-04-02T10:48:00.918Z,32.96
2023-04-02T10:50:51.815Z,33.00
2023-04-02T10:53:20.743Z,33.03
2023-04-02T10:55:51.296Z,33.06
2023-04-02T10:58:24.619Z,33.11
2023-04-02T11:00:53.810Z,33.14
2023-04-02T11:03:29.972Z,33.18
2023-04-02T11:05:58.390Z,33.19
2023-04-02T11:08:42.016Z,33.21
2023-04-02T11:11:15.112Z,33.23
2023-04-02T11:14:06.058Z,33.26
2023-04-02T11:16:32.718Z,33.32
2023-04-02T11:19:14.570Z,33.33
2023-04-02T11:21:55.027Z,33.35
2023-04-02T11:24:34.131Z,33.39
2023-04-02T11:27:09.962Z,33.42
2023-04-02T11:29:37.011Z,33.43
2023-04-02T11:32:22.105Z,33.43
2023-04-02T11:34:56.365Z,33.41
2023-04-02T11:37:29.858Z,33.45
2023-04-02T11:39:58.275Z,33.49
2023-04-02T11:42:35.046Z,33.53
2023-04-02T11:45:21.010Z,33.56
2023-04-02T11:47:59.970Z,33.55
2023-04-02T11:50:34.238Z,33.62
2023-04-02T11:53:10.360Z,33.64
2023-04-02T11:55:42.571Z,33.62
2023-04-02T11:58:32.203Z,33.65
2023-04-02T12:01:18.363Z,33.70
2023-04-02T12:04:22.789Z,33.73
2023-04-02T12:07:17.528Z,33.72
2023-04-02T12:09:47.900Z,33.71
2023-04-02T12:12:29.065Z,33.73
2023-04-02T12:14:56.501Z,33.75
2023-04-02T12:17:29.322Z,33.78
2023-04-02T12:20:09.844Z,33.80
2023-04-02T12:22:39.215Z,33.78
2023-04-02T12:25:21.669Z,33.77
2023-04-02T12:27:48.433Z,33.78
2023-04-02T12:30:24.256Z,33.80
2023-04-02T12:32:50.813Z,33.83
2023-04-02T12:35:32.786Z,33.81
2023-04-02T12:37:59.360Z,33.74
2023-04-02T12:40:26.595Z,33.79
2023-04-02T12:42:53.238Z,33.82
2023-04-02T12:45:29.489Z,33.86
2023-04-02T12:47:57.831Z,33.87
2023-04-02T12:50:24.536Z,33.87
2023-04-02T12:52:53.185Z,33.89
2023-04-02T12:55:21.471Z,33.95
2023-04-02T12:57:50.073Z,33.93
2023-04-02T13:00:22.616Z,33.93
2023-04-02T13:02:50.715Z,33.96
2023-04-02T13:05:47.057Z,33.94
2023-04-02T13:08:18.528Z,34.00
2023-04-02T13:10:45.396Z,34.00
2023-04-02T13:13:16.569Z,34.01
2023-04-02T13:15:43.791Z,34.02
2023-04-02T13:18:19.067Z,34.05
2023-04-02T13:20:56.323Z,34.07
2023-04-02T13:23:29.958Z,34.07
2023-04-02T13:26:24.276Z,34.08
2023-04-02T13:29:09.475Z,34.09
2023-04-02T13:31:36.148Z,34.08
2023-04-02T13:34:02.734Z,34.09
2023-04-02T13:36:29.676Z,34.13
2023-04-02T13:38:56.612Z,34.14
2023-04-02T13:41:27.961Z,34.13
2023-04-02T13:43:54.975Z,34.14
2023-04-02T13:46:23.654Z,34.17
2023-04-02T13:48:50.892Z,34.15
2023-04-02T13:51:18.335Z,34.14
2023-04-02T13:53:47.074Z,34.15
2023-04-02T13:56:14.286Z,34.16
2023-04-02T13:58:40.993Z,34.14
2023-04-02T14:01:07.845Z,34.07
2023-04-02T14:03:34.582Z,34.03
2023-04-02T14:06:19.673Z,34.03
2023-04-02T14:08:51.824Z,34.03
2023-04-02T14:11:21.448Z,34.02
2023-04-02T14:13:55.812Z,34.01
2023-04-02T14:16:31.569Z,34.06
2023-04-02T14:19:49.512Z,34.03
2023-04-02T14:22:29.414Z,34.08
2023-04-02T14:25:24.721Z,34.13
2023-04-02T14:27:59.001Z,34.13
2023-04-02T14:30:44.018Z,34.17
2023-04-02T14:33:18.542Z,34.18
2023-04-02T14:35:51.802Z,34.22
2023-04-02T14:38:35.767Z,34.19
2023-04-02T14:41:09.895Z,34.25
2023-04-02T14:43:39.365Z,34.29
2023-04-02T14:46:07.238Z,34.32
2023-04-02T14:49:17.355Z,34.40
2023-04-02T14:52:03.908Z,34.49
2023-04-02T14:54:39.206Z,34.50
2023-04-02T14:57:12.170Z,34.50
2023-04-02T14:59:45.439Z,34.51
2023-04-02T15:02:27.270Z,34.52
2023-04-02T15:05:13.327Z,34.57
2023-04-02T15:07:42.786Z,34.58
2023-04-02T15:10:28.140Z,34.63
2023-04-02T15:12:55.992Z,34.63
2023-04-02T15:15:39.898Z,34.69
2023-04-02T15:18:16.843Z,34.82
2023-04-02T15:20:52.903Z,34.92
2023-04-02T15:24:01.793Z,35.05
2023-04-02T15:26:49.564Z,35.25
2023-04-02T15:29:39.854Z,35.26
2023-04-02T15:32:25.205Z,35.35
2023-04-02T15:35:01.002Z,35.51
2023-04-02T15:37:35.686Z,35.66
2023-04-02T15:40:25.513Z,35.83
2023-04-02T15:43:10.467Z,36.03
2023-04-02T15:45:51.229Z,36.07
2023-04-02T15:48:44.498Z,36.15
2023-04-02T15:51:29.950Z,36.12
2023-04-02T15:54:35.527Z,36.15
2023-04-02T15:57:11.157Z,36.43
2023-04-02T15:59:40.907Z,36.38
2023-04-02T16:02:32.550Z,36.45
2023-04-02T16:05:06.494Z,36.62
2023-04-02T16:07:51.229Z,36.63
2023-04-02T16:10:37.882Z,36.58
2023-04-02T16:13:37.039Z,36.65
2023-04-02T16:16:31.471Z,36.71
2023-04-02T16:19:16.718Z,36.67
2023-04-02T16:21:53.232Z,36.72
2023-04-02T16:24:19.921Z,36.73
2023-04-02T16:26:55.907Z,36.65
2023-04-02T16:29:29.395Z,36.80
2023-04-02T16:32:17.912Z,36.83
2023-04-02T16:35:01.819Z,37.00
2023-04-02T16:38:02.446Z,36.95
2023-04-02T16:40:41.495Z,37.07
2023-04-02T16:43:40.454Z,37.12
2023-04-02T16:49:23.705Z,37.36
2023-04-02T16:51:59.753Z,37.23
2023-04-02T16:54:41.751Z,37.18
2023-04-02T16:57:20.462Z,37.21
2023-04-02T17:00:00.458Z,37.13
2023-04-02T17:02:44.763Z,37.06
2023-04-02T17:05:32.528Z,37.24
2023-04-02T17:08:23.934Z,37.22
2023-04-02T17:10:52.315Z,37.08
2023-04-02T17:13:27.153Z,37.02
2023-04-02T17:16:09.340Z,36.95
2023-04-02T17:18:36.017Z,36.89
2023-04-02T17:21:05.615Z,36.90
2023-04-02T17:23:33.310Z,36.85
2023-04-02T17:26:03.933Z,36.89
2023-04-02T17:28:36.698Z,36.92
2023-04-02T17:31:06.262Z,36.88
2023-04-02T17:33:32.915Z,36.93
2023-04-02T17:36:08.520Z,36.88
2023-04-02T17:38:45.569Z,36.86
2023-04-02T17:41:31.928Z,36.81
2023-04-02T17:44:01.485Z,36.83
2023-04-02T17:46:46.536Z,36.78
2023-04-02T17:49:20.039Z,36.69
2023-04-02T17:52:00.941Z,36.70
2023-04-02T17:54:57.729Z,36.63
2023-04-02T17:57:27.289Z,36.58
2023-04-02T18:00:14.479Z,36.54
2023-04-02T18:02:47.259Z,36.59
2023-04-02T18:05:36.528Z,36.51
2023-04-02T18:08:18.654Z,36.51
2023-04-02T18:10:51.215Z,36.48
2023-04-02T18:13:50.108Z,36.42
2023-04-02T18:16:47.037Z,36.35
2023-04-02T18:19:21.346Z,36.33
2023-04-02T18:22:10.904Z,36.36
2023-04-02T18:25:06.763Z,36.22
2023-04-02T18:27:49.091Z,36.26
2023-04-02T18:30:34.588Z,36.15
2023-04-02T18:33:28.442Z,36.15
2023-04-02T18:36:21.674Z,36.13
2023-04-02T18:39:14.437Z,36.07
2023-04-02T18:42:01.556Z,36.03
2023-04-02T18:45:00.554Z,35.95
2023-04-02T18:48:02.974Z,35.90
2023-04-02T18:50:31.104Z,35.87
2023-04-02T18:52:57.795Z,35.86
2023-04-02T18:55:27.306Z,35.88
2023-04-02T18:58:05.492Z,35.83
2023-04-02T19:00:38.342Z,35.79
2023-04-02T19:03:29.399Z,35.70
2023-04-02T19:06:07.762Z,35.69
2023-04-02T19:08:37.848Z,35.71
2023-04-02T19:11:07.111Z,35.65
2023-04-02T19:13:33.822Z,35.62
2023-04-02T19:16:21.950Z,35.57
2023-04-02T19:19:01.193Z,35.49
2023-04-02T19:21:59.445Z,35.53
2023-04-02T19:25:15.052Z,35.49
2023-04-02T19:28:12.407Z,35.40
2023-04-02T19:30:49.766Z,35.45
2023-04-02T19:33:35.204Z,35.42
2023-04-02T19:36:20.910Z,35.37
2023-04-02T19:39:26.697Z,35.37
2023-04-02T19:41:54.537Z,35.34
2023-04-02T19:44:21.148Z,35.24
2023-04-02T19:46:47.967Z,35.24
2023-04-02T19:49:24.370Z,35.21
2023-04-02T19:51:51.856Z,35.13
2023-04-02T19:54:18.775Z,35.22
2023-04-02T19:56:45.556Z,35.15
2023-04-02T19:59:18.003Z,35.16
2023-04-02T20:01:45.190Z,35.03
2023-04-02T20:04:11.775Z,35.06
2023-04-02T20:06:38.570Z,35.06
2023-04-02T20:09:05.316Z,35.02
2023-04-02T20:11:32.007Z,34.88
2023-04-02T20:13:58.608Z,34.90
2023-04-02T20:16:25.244Z,34.94
2023-04-02T20:18:52.482Z,34.92
2023-04-02T20:21:19.212Z,34.91
2023-04-02T20:23:46.053Z,34.85
2023-04-02T20:26:13.174Z,34.77
2023-04-02T20:28:39.850Z,34.86
2023-04-02T20:31:08.550Z,34.82
2023-04-02T20:33:35.347Z,34.75
2023-04-02T20:36:07.380Z,34.72
2023-04-02T20:38:35.113Z,34.77
2023-04-02T20:41:02.145Z,34.84
2023-04-02T20:43:28.754Z,34.71
2023-04-02T20:45:55.813Z,34.70
2023-04-02T20:48:23.385Z,34.67
2023-04-02T20:50:50.050Z,34.72
2023-04-02T20:53:17.405Z,34.76
2023-04-02T20:55:45.859Z,34.67
2023-04-02T20:58:16.085Z,34.66
2023-04-02T21:00:43.543Z,34.52
2023-04-02T21:03:13.433Z,34.56
2023-04-02T21:05:46.593Z,34.65
2023-04-02T21:08:13.470Z,34.70
2023-04-02T21:10:40.431Z,34.57
2023-04-02T21:13:07.121Z,34.57
2023-04-02T21:15:33.976Z,34.66
2023-04-02T21:18:01.067Z,34.68
2023-04-02T21:20:27.907Z,34.62
2023-04-02T21:22:54.568Z,34.69
2023-04-02T21:25:21.243Z,34.70
2023-04-02T21:27:47.812Z,34.75
2023-04-02T21:30:14.430Z,34.73
2023-04-02T21:32:41.052Z,34.82
2023-04-02T21:35:08.893Z,34.69
2023-04-02T21:37:35.745Z,34.63
2023-04-02T21:40:02.514Z,34.68
2023-04-02T21:42:29.149Z,34.77
2023-04-02T21:44:55.986Z,34.73
2023-04-02T21:47:23.672Z,34.73
2023-04-02T21:49:50.356Z,34.55
2023-04-02T21:52:16.985Z,34.59
2023-04-02T21:54:43.584Z,34.47
2023-04-02T21:57:10.380Z,34.46
2023-04-02T21:59:37.012Z,34.47
2023-04-02T22:02:04.837Z,34.36
2023-04-02T22:04:33.266Z,34.36
2023-04-02T22:07:00.101Z,34.28
2023-04-02T22:09:26.944Z,34.25
2023-04-02T22:11:55.605Z,34.46
2023-04-02T22:14:22.277Z,34.30
2023-04-02T22:16:48.935Z,34.15
2023-04-02T22:19:16.003Z,34.35
2023-04-02T22:21:42.621Z,34.14
2023-04-02T22:24:11.755Z,34.12
2023-04-02T22:26:38.460Z,34.02
2023-04-02T22:29:05.183Z,34.15
2023-04-02T22:31:33.452Z,33.93
2023-04-02T22:34:01.039Z,34.00
2023-04-02T22:36:28.307Z,33.96
2023-04-02T22:38:55.150Z,33.90
2023-04-02T22:41:25.666Z,33.93
2023-04-02T22:43:52.400Z,33.90
2023-04-02T22:46:19.296Z,33.80
2023-04-02T22:48:46.663Z,33.84
2023-04-02T22:51:14.525Z,33.75
2023-04-02T22:53:41.736Z,33.68
2023-04-02T22:56:20.092Z,33.76
2023-04-02T22:58:46.780Z,33.73
2023-04-02T23:01:22.047Z,33.71
2023-04-02T23:03:48.878Z,33.61
2023-04-02T23:06:17.136Z,33.63
2023-04-02T23:08:43.875Z,33.59
2023-04-02T23:11:14.819Z,33.53
2023-04-02T23:13:41.940Z,33.55
2023-04-02T23:16:11.139Z,33.55
2023-04-02T23:18:38.236Z,33.46
2023-04-02T23:21:05.071Z,33.52
2023-04-02T23:23:32.069Z,33.45
2023-04-02T23:26:11.644Z,33.50
2023-04-02T23:28:38.595Z,33.38
2023-04-02T23:31:06.845Z,33.25
2023-04-02T23:33:33.832Z,33.20
2023-04-02T23:36:00.921Z,33.28
2023-04-02T23:38:27.641Z,33.32
2023-04-02T23:40:54.325Z,33.13
2023-04-02T23:43:21.187Z,33.19
2023-04-02T23:45:50.601Z,33.19
2023-04-02T23:48:17.252Z,33.14
2023-04-02T23:50:44.714Z,33.10
2023-04-02T23:53:11.921Z,33.07
2023-04-02T23:55:38.510Z,33.07
2023-04-02T23:58:05.415Z,33.06
